createdAt,value
2019-03-17T00:01:19.557Z,10.10
2019-03-17T00:03:48.703Z,10.20
2019-03-17T00:06:17.880Z,10.10
2019-03-17T00:08:47.034Z,10.10
2019-03-17T00:11:16.185Z,10.00
2019-03-17T00:13:45.358Z,9.90
2019-03-17T00:16:14.501Z,9.90
2019-03-17T00:18:43.634Z,9.90
2019-03-17T00:21:12.868Z,9.70
2019-03-17T00:23:42.000Z,9.70
2019-03-17T00:26:11.225Z,9.60
2019-03-17T00:28:40.364Z,9.70
2019-03-17T00:31:09.525Z,9.60
2019-03-17T00:33:38.668Z,9.40
2019-03-17T00:36:07.823Z,9.30
2019-03-17T00:38:37.027Z,9.30
2019-03-17T00:41:06.284Z,9.20
2019-03-17T00:43:35.453Z,9.10
2019-03-17T00:46:04.605Z,9.10
2019-03-17T00:48:33.748Z,9.00
2019-03-17T00:51:02.895Z,9.00
2019-03-17T00:53:32.113Z,9.00
2019-03-17T00:56:01.239Z,9.10
2019-03-17T00:58:30.758Z,9.20
2019-03-17T01:00:59.892Z,9.20
2019-03-17T01:03:29.083Z,9.10
2019-03-17T01:05:58.202Z,9.10
2019-03-17T01:08:27.352Z,9.20
2019-03-17T01:10:56.478Z,9.10
2019-03-17T01:13:25.630Z,9.30
2019-03-17T01:15:54.760Z,9.20
2019-03-17T01:18:23.942Z,9.30
2019-03-17T01:20:53.072Z,9.00
2019-03-17T01:23:22.356Z,9.10
2019-03-17T01:25:51.702Z,9.10
2019-03-17T01:28:21.026Z,9.10
2019-03-17T01:30:50.394Z,9.00
2019-03-17T01:33:19.717Z,9.10
2019-03-17T01:35:48.905Z,9.30
2019-03-17T01:38:18.063Z,9.20
2019-03-17T01:40:47.282Z,9.20
2019-03-17T01:43:16.417Z,9.10
2019-03-17T01:45:45.668Z,9.00
2019-03-17T01:48:14.822Z,9.10
2019-03-17T01:50:43.990Z,8.90
2019-03-17T01:53:13.131Z,8.90
2019-03-17T01:55:42.280Z,8.80
2019-03-17T01:58:11.400Z,8.90
2019-03-17T02:00:40.747Z,8.80
2019-03-17T02:03:09.893Z,8.80
2019-03-17T02:05:39.063Z,8.80
2019-03-17T02:08:08.584Z,8.80
2019-03-17T02:10:37.744Z,8.70
2019-03-17T02:13:06.876Z,8.50
2019-03-17T02:15:36.069Z,8.60
2019-03-17T02:18:05.226Z,8.70
2019-03-17T02:20:34.800Z,8.70
2019-03-17T02:23:03.944Z,8.50
2019-03-17T02:25:33.296Z,8.40
2019-03-17T02:28:02.602Z,8.40
2019-03-17T02:30:31.748Z,8.20
2019-03-17T02:33:00.892Z,8.30
2019-03-17T02:35:38.962Z,8.30
2019-03-17T02:38:00.990Z,8.20
2019-03-17T02:40:30.142Z,8.20
2019-03-17T02:42:59.309Z,8.00
2019-03-17T02:45:28.426Z,8.00
2019-03-17T02:47:57.677Z,7.80
2019-03-17T02:50:26.910Z,7.70
2019-03-17T02:52:56.062Z,7.60
2019-03-17T02:55:25.179Z,7.60
2019-03-17T02:57:54.333Z,7.70
2019-03-17T03:00:23.476Z,7.70
2019-03-17T03:02:52.628Z,7.70
2019-03-17T03:05:21.774Z,7.70
2019-03-17T03:07:50.928Z,7.70
2019-03-17T03:10:20.233Z,7.60
2019-03-17T03:12:49.420Z,7.60
2019-03-17T03:15:18.557Z,7.60
2019-03-17T03:17:47.717Z,7.50
2019-03-17T03:20:16.860Z,7.40
2019-03-17T03:22:46.024Z,7.40
2019-03-17T03:25:15.188Z,7.30
2019-03-17T03:27:45.468Z,7.30
2019-03-17T03:30:14.650Z,7.30
2019-03-17T03:32:43.889Z,7.20
2019-03-17T03:35:13.006Z,7.20
2019-03-17T03:37:42.160Z,7.10
2019-03-17T03:40:11.329Z,7.00
2019-03-17T03:42:40.432Z,7.10
2019-03-17T03:45:09.990Z,7.00
2019-03-17T03:47:39.120Z,7.00
2019-03-17T03:50:08.291Z,6.90
2019-03-17T03:52:37.534Z,6.50
2019-03-17T03:55:06.713Z,6.50
2019-03-17T03:57:35.843Z,6.60
2019-03-17T04:00:06.641Z,6.50
2019-03-17T04:02:35.783Z,6.60
2019-03-17T04:05:05.584Z,6.50
2019-03-17T04:07:34.731Z,6.50
2019-03-17T04:10:04.069Z,6.50
2019-03-17T04:12:33.304Z,6.40
2019-03-17T04:15:02.510Z,6.50
2019-03-17T04:17:31.652Z,6.50
2019-03-17T04:20:00.823Z,6.70
2019-03-17T04:22:29.979Z,6.70
2019-03-17T04:24:59.142Z,6.60
2019-03-17T04:27:28.326Z,6.50
2019-03-17T04:29:57.782Z,6.40
2019-03-17T04:32:27.307Z,6.40
2019-03-17T04:34:56.479Z,6.50
2019-03-17T04:37:25.637Z,6.60
2019-03-17T04:39:54.783Z,6.50
2019-03-17T04:42:23.933Z,6.60
2019-03-17T04:44:53.064Z,6.60
2019-03-17T04:47:22.213Z,6.50
2019-03-17T04:49:51.423Z,6.40
2019-03-17T04:52:39.636Z,6.30
2019-03-17T04:55:08.865Z,6.40
2019-03-17T04:57:38.088Z,6.30
2019-03-17T05:00:07.893Z,6.30
2019-03-17T05:02:37.043Z,6.20
2019-03-17T05:05:07.161Z,6.10
2019-03-17T05:07:36.281Z,6.20
2019-03-17T05:10:05.843Z,6.10
2019-03-17T05:12:34.980Z,6.30
2019-03-17T05:15:04.116Z,6.40
2019-03-17T05:17:33.256Z,6.30
2019-03-17T05:20:02.470Z,6.20
2019-03-17T05:22:31.616Z,6.20
2019-03-17T05:25:00.740Z,6.10
2019-03-17T05:27:29.938Z,6.10
2019-03-17T05:29:59.057Z,6.00
2019-03-17T05:32:28.204Z,5.80
2019-03-17T05:34:57.356Z,5.90
2019-03-17T05:37:26.480Z,5.80
2019-03-17T05:39:55.783Z,5.70
2019-03-17T05:42:24.915Z,5.70
2019-03-17T05:44:54.081Z,5.90
2019-03-17T05:47:23.220Z,5.80
2019-03-17T05:49:52.367Z,5.80
2019-03-17T05:52:21.500Z,6.00
2019-03-17T05:54:50.658Z,6.00
2019-03-17T05:57:19.788Z,6.10
2019-03-17T05:59:48.933Z,6.20
2019-03-17T06:02:18.136Z,6.30
2019-03-17T06:04:47.350Z,6.20
2019-03-17T06:07:18.980Z,6.40
2019-03-17T06:09:47.362Z,6.30
2019-03-17T06:12:16.565Z,6.30
2019-03-17T06:14:45.744Z,6.30
2019-03-17T06:17:14.861Z,6.40
2019-03-17T06:19:43.999Z,6.50
2019-03-17T06:22:13.196Z,6.60
2019-03-17T06:24:42.414Z,6.70
2019-03-17T06:27:11.564Z,6.90
2019-03-17T06:29:40.720Z,7.00
2019-03-17T06:32:09.938Z,7.00
2019-03-17T06:34:39.060Z,7.10
2019-03-17T06:37:08.216Z,7.10
2019-03-17T06:39:37.340Z,7.10
2019-03-17T06:42:06.660Z,7.30
2019-03-17T06:44:35.791Z,7.30
2019-03-17T06:47:06.024Z,7.40
2019-03-17T06:49:35.320Z,7.50
2019-03-17T06:52:04.535Z,7.60
2019-03-17T06:54:33.667Z,7.70
2019-03-17T06:57:02.828Z,7.80
2019-03-17T06:59:31.963Z,8.10
2019-03-17T07:02:01.110Z,8.30
2019-03-17T07:04:30.269Z,8.30
2019-03-17T07:06:59.404Z,8.60
2019-03-17T07:09:28.537Z,8.70
2019-03-17T07:11:57.726Z,8.80
2019-03-17T07:14:26.865Z,9.00
2019-03-17T07:16:56.207Z,9.10
2019-03-17T07:19:25.368Z,9.20
2019-03-17T07:21:54.561Z,9.20
2019-03-17T07:24:23.904Z,9.30
2019-03-17T07:26:53.202Z,9.30
2019-03-17T07:29:22.323Z,9.50
2019-03-17T07:31:51.450Z,9.70
2019-03-17T07:34:20.597Z,9.90
2019-03-17T07:36:49.856Z,10.10
2019-03-17T07:39:19.007Z,10.30
2019-03-17T07:41:48.247Z,10.90
2019-03-17T07:44:17.393Z,11.60
2019-03-17T07:46:46.624Z,12.20
2019-03-17T07:49:15.898Z,12.60
2019-03-17T07:52:04.138Z,13.10
2019-03-17T07:54:35.096Z,14.00
2019-03-17T07:57:04.296Z,14.80
2019-03-17T07:59:33.536Z,14.90
2019-03-17T08:02:04.885Z,15.60
2019-03-17T08:04:42.546Z,16.10
2019-03-17T08:07:05.338Z,16.90
2019-03-17T08:09:34.591Z,17.90
2019-03-17T08:12:03.745Z,18.40
2019-03-17T08:14:33.122Z,19.40
2019-03-17T08:17:02.292Z,20.30
2019-03-17T08:19:31.773Z,21.80
2019-03-17T08:22:01.335Z,23.10
2019-03-17T08:24:30.656Z,24.30
2019-03-17T08:26:59.824Z,25.00
2019-03-17T08:29:28.988Z,25.60
2019-03-17T08:31:58.209Z,25.40
2019-03-17T08:34:27.451Z,25.30
2019-03-17T08:36:56.710Z,24.20
2019-03-17T08:39:26.179Z,22.70
2019-03-17T08:41:55.416Z,21.70
2019-03-17T08:44:24.548Z,21.30
2019-03-17T08:46:53.706Z,20.80
2019-03-17T08:49:23.193Z,20.90
2019-03-17T08:51:52.461Z,20.60
2019-03-17T08:54:21.613Z,20.40
2019-03-17T08:56:50.900Z,20.50
2019-03-17T08:59:20.395Z,20.60
2019-03-17T09:01:49.674Z,20.60
2019-03-17T09:04:18.985Z,20.40
2019-03-17T09:06:48.160Z,20.50
2019-03-17T09:09:17.297Z,20.50
2019-03-17T09:11:46.527Z,20.40
2019-03-17T09:14:15.827Z,20.40
2019-03-17T09:16:44.996Z,20.20
2019-03-17T09:19:14.169Z,20.00
2019-03-17T09:21:43.365Z,20.10
2019-03-17T09:24:17.222Z,19.90
2019-03-17T09:26:43.470Z,19.90
2019-03-17T09:29:12.664Z,20.10
2019-03-17T09:31:41.864Z,19.90
2019-03-17T09:34:11.005Z,20.10
2019-03-17T09:36:40.245Z,20.00
2019-03-17T09:39:09.578Z,20.20
2019-03-17T09:41:38.726Z,20.50
2019-03-17T09:44:07.894Z,20.70
2019-03-17T09:46:37.045Z,20.80
2019-03-17T09:49:06.266Z,20.60
2019-03-17T09:51:35.488Z,20.60
2019-03-17T09:54:04.672Z,20.70
2019-03-17T09:56:34.053Z,20.30
2019-03-17T09:59:03.220Z,20.20
2019-03-17T10:01:32.370Z,19.90
2019-03-17T10:04:01.625Z,20.00
2019-03-17T10:06:30.881Z,20.20
2019-03-17T10:09:00.584Z,20.60
2019-03-17T10:11:29.974Z,21.10
2019-03-17T10:14:00.229Z,21.10
2019-03-17T10:16:29.389Z,21.10
2019-03-17T10:18:58.642Z,20.20
2019-03-17T10:21:27.796Z,19.90
2019-03-17T10:23:56.985Z,19.60
2019-03-17T10:26:26.236Z,19.60
2019-03-17T10:28:55.452Z,19.40
2019-03-17T10:31:24.625Z,19.20
2019-03-17T10:33:53.897Z,19.00
2019-03-17T10:36:23.055Z,18.60
2019-03-17T10:38:52.256Z,18.60
2019-03-17T10:41:21.405Z,18.70
2019-03-17T10:43:50.566Z,18.60
2019-03-17T10:46:19.805Z,18.70
2019-03-17T10:48:49.000Z,19.30
2019-03-17T10:51:18.181Z,19.90
2019-03-17T10:53:47.338Z,19.60
2019-03-17T10:56:16.546Z,19.80
2019-03-17T10:58:45.671Z,20.10
2019-03-17T11:01:14.967Z,20.90
2019-03-17T11:03:44.098Z,20.90
2019-03-17T11:06:13.279Z,20.70
2019-03-17T11:08:42.451Z,20.70
2019-03-17T11:11:12.268Z,21.30
2019-03-17T11:13:41.716Z,21.30
2019-03-17T11:16:11.006Z,21.20
2019-03-17T11:18:40.217Z,21.70
2019-03-17T11:21:09.485Z,21.80
2019-03-17T11:23:38.715Z,21.70
2019-03-17T11:26:07.904Z,21.80
2019-03-17T11:28:37.114Z,22.00
2019-03-17T11:31:06.307Z,21.30
2019-03-17T11:33:35.440Z,21.10
2019-03-17T11:36:04.683Z,20.40
2019-03-17T11:38:34.228Z,20.10
2019-03-17T11:41:03.381Z,19.60
2019-03-17T11:43:32.619Z,19.10
2019-03-17T11:46:02.087Z,19.00
2019-03-17T11:48:31.383Z,18.90
2019-03-17T11:51:00.669Z,19.00
2019-03-17T11:53:29.850Z,19.60
2019-03-17T11:55:59.035Z,19.70
2019-03-17T11:58:28.396Z,19.60
2019-03-17T12:00:57.557Z,20.60
2019-03-17T12:03:26.850Z,21.00
2019-03-17T12:05:56.010Z,21.50
2019-03-17T12:08:25.155Z,20.90
2019-03-17T12:10:54.348Z,21.40
2019-03-17T12:13:23.606Z,23.70
2019-03-17T12:15:52.759Z,24.30
2019-03-17T12:18:21.905Z,26.00
2019-03-17T12:20:51.052Z,27.10
2019-03-17T12:23:20.234Z,28.20
2019-03-17T12:25:49.409Z,28.40
2019-03-17T12:28:18.586Z,29.10
2019-03-17T12:30:47.836Z,27.40
2019-03-17T12:33:17.100Z,25.80
2019-03-17T12:35:46.268Z,24.40
2019-03-17T12:38:15.522Z,23.00
2019-03-17T12:40:44.675Z,22.10
2019-03-17T12:43:13.941Z,20.80
2019-03-17T12:45:43.239Z,20.20
2019-03-17T12:48:12.522Z,19.60
2019-03-17T12:50:41.893Z,19.30
2019-03-17T12:53:11.130Z,19.00
2019-03-17T12:55:40.453Z,18.70
2019-03-17T12:58:09.848Z,18.50
2019-03-17T13:00:39.165Z,18.30
2019-03-17T13:03:08.429Z,18.20
2019-03-17T13:05:37.684Z,18.00
2019-03-17T13:08:06.853Z,17.70
2019-03-17T13:10:35.989Z,17.60
2019-03-17T13:13:05.170Z,17.50
2019-03-17T13:15:34.372Z,17.30
2019-03-17T13:18:03.532Z,17.20
2019-03-17T13:20:32.742Z,16.90
2019-03-17T13:23:01.927Z,16.70
2019-03-17T13:25:31.192Z,16.50
2019-03-17T13:28:00.465Z,16.40
2019-03-17T13:30:29.608Z,16.20
2019-03-17T13:32:58.998Z,16.20
2019-03-17T13:35:28.164Z,16.10
2019-03-17T13:37:57.432Z,16.00
2019-03-17T13:40:30.183Z,15.90
2019-03-17T13:42:57.973Z,15.80
2019-03-17T13:45:27.146Z,15.80
2019-03-17T13:47:56.465Z,15.70
2019-03-17T13:50:25.717Z,15.50
2019-03-17T13:52:54.876Z,15.30
2019-03-17T13:55:24.051Z,15.20
2019-03-17T13:57:54.732Z,14.20
2019-03-17T14:00:23.901Z,14.00
2019-03-17T14:02:53.049Z,13.80
2019-03-17T14:05:22.201Z,13.60
2019-03-17T14:07:51.355Z,13.50
2019-03-17T14:10:20.538Z,13.30
2019-03-17T14:12:49.776Z,13.20
2019-03-17T14:15:18.956Z,12.90
2019-03-17T14:17:48.168Z,12.70
2019-03-17T14:20:20.349Z,12.40
2019-03-17T14:22:48.873Z,12.20
2019-03-17T14:25:20.712Z,12.20
2019-03-17T14:27:50.048Z,12.00
2019-03-17T14:30:19.183Z,11.80
2019-03-17T14:32:48.411Z,11.80
2019-03-17T14:35:17.935Z,11.60
2019-03-17T14:37:47.281Z,11.40
2019-03-17T14:40:16.793Z,11.00
2019-03-17T14:42:48.444Z,10.80
2019-03-17T14:45:24.727Z,10.90
2019-03-17T14:47:53.877Z,10.90
2019-03-17T14:50:23.257Z,10.80
2019-03-17T14:53:03.185Z,10.80
2019-03-17T14:55:54.677Z,10.70
2019-03-17T14:58:24.026Z,10.50
2019-03-17T15:00:54.752Z,10.50
2019-03-17T15:03:23.897Z,10.40
2019-03-17T15:05:53.148Z,10.40
2019-03-17T15:08:22.341Z,10.40
2019-03-17T15:10:51.515Z,10.30
2019-03-17T15:13:20.857Z,10.10
2019-03-17T15:16:02.023Z,10.10
2019-03-17T15:18:21.116Z,10.10
2019-03-17T15:20:50.507Z,9.80
2019-03-17T15:23:19.716Z,9.80
2019-03-17T15:25:48.889Z,9.90
2019-03-17T15:28:18.071Z,9.90
2019-03-17T15:31:00.357Z,9.90
2019-03-17T15:33:18.309Z,9.90
2019-03-17T15:35:47.541Z,9.80
2019-03-17T15:38:16.764Z,9.80
2019-03-17T15:40:46.078Z,9.70
2019-03-17T15:43:15.376Z,9.80
2019-03-17T15:45:44.638Z,9.80
2019-03-17T15:48:13.856Z,10.00
2019-03-17T15:50:43.251Z,9.90
2019-03-17T15:53:12.511Z,9.90
2019-03-17T15:55:41.777Z,9.50
2019-03-17T15:58:11.036Z,9.70
2019-03-17T16:00:40.305Z,9.60
2019-03-17T16:03:09.872Z,9.80
2019-03-17T16:05:39.941Z,9.70
2019-03-17T16:08:09.128Z,9.80
2019-03-17T16:10:38.281Z,10.00
2019-03-17T16:13:07.516Z,10.00
2019-03-17T16:15:36.769Z,10.00
2019-03-17T16:18:06.053Z,10.00
2019-03-17T16:20:35.187Z,9.80
2019-03-17T16:23:04.375Z,9.90
2019-03-17T16:25:33.990Z,10.00
2019-03-17T16:28:03.476Z,10.00
2019-03-17T16:30:32.745Z,10.00
2019-03-17T16:33:01.921Z,9.90
2019-03-17T16:35:31.201Z,10.10
2019-03-17T16:38:00.731Z,10.00
2019-03-17T16:40:29.894Z,10.00
2019-03-17T16:42:59.176Z,9.90
2019-03-17T16:45:28.440Z,9.90
2019-03-17T16:47:57.635Z,10.10
2019-03-17T16:50:27.056Z,10.00
2019-03-17T16:52:56.239Z,10.10
2019-03-17T16:55:25.393Z,9.80
2019-03-17T16:57:54.643Z,9.90
2019-03-17T17:00:23.962Z,9.80
2019-03-17T17:02:53.122Z,10.00
2019-03-17T17:05:22.365Z,9.80
2019-03-17T17:07:51.742Z,9.80
2019-03-17T17:10:21.075Z,9.80
2019-03-17T17:12:50.213Z,9.80
2019-03-17T17:15:21.444Z,9.60
2019-03-17T17:17:50.586Z,9.60
2019-03-17T17:20:22.115Z,9.70
2019-03-17T17:22:51.342Z,9.80
2019-03-17T17:25:20.597Z,9.50
2019-03-17T17:27:49.804Z,9.50
2019-03-17T17:30:19.012Z,9.60
2019-03-17T17:32:48.231Z,9.70
2019-03-17T17:35:17.577Z,9.70
2019-03-17T17:37:46.742Z,9.60
2019-03-17T17:40:16.836Z,9.50
2019-03-17T17:42:46.060Z,9.60
2019-03-17T17:45:16.139Z,9.50
2019-03-17T17:47:45.497Z,9.40
2019-03-17T17:50:15.995Z,9.20
2019-03-17T17:52:45.591Z,9.30
2019-03-17T17:55:14.826Z,9.20
2019-03-17T17:57:44.178Z,9.10
2019-03-17T18:00:18.100Z,9.20
2019-03-17T18:02:47.470Z,9.20
2019-03-17T18:05:16.624Z,9.30
2019-03-17T18:07:46.160Z,9.20
2019-03-17T18:10:16.400Z,9.30
2019-03-17T18:12:45.590Z,9.30
2019-03-17T18:15:16.374Z,9.30
2019-03-17T18:17:45.740Z,9.30
2019-03-17T18:20:14.984Z,9.10
2019-03-17T18:22:44.315Z,9.10
2019-03-17T18:25:14.255Z,9.00
2019-03-17T18:27:43.953Z,9.10
2019-03-17T18:30:14.856Z,9.10
2019-03-17T18:32:44.080Z,9.10
2019-03-17T18:35:13.399Z,9.10
2019-03-17T18:37:42.779Z,9.10
2019-03-17T18:40:13.593Z,8.90
2019-03-17T18:42:42.935Z,8.80
2019-03-17T18:45:17.232Z,8.90
2019-03-17T18:47:46.568Z,9.00
2019-03-17T18:50:20.756Z,9.00
2019-03-17T18:52:46.836Z,8.90
2019-03-17T18:55:16.208Z,8.90
2019-03-17T18:57:45.538Z,8.70
2019-03-17T19:00:17.336Z,8.80
2019-03-17T19:02:46.515Z,8.90
2019-03-17T19:05:15.969Z,9.00
2019-03-17T19:07:45.117Z,8.90
2019-03-17T19:10:15.988Z,8.60
2019-03-17T19:12:46.322Z,8.70
2019-03-17T19:15:15.943Z,8.70
2019-03-17T19:17:45.103Z,8.70
2019-03-17T19:20:15.230Z,8.70
2019-03-17T19:22:44.603Z,8.80
2019-03-17T19:25:14.895Z,8.80
2019-03-17T19:27:44.214Z,8.90
2019-03-17T19:30:15.512Z,8.80
2019-03-17T19:32:44.802Z,8.80
2019-03-17T19:35:14.437Z,8.80
2019-03-17T19:37:43.762Z,8.70
2019-03-17T19:40:14.272Z,8.90
2019-03-17T19:42:43.740Z,8.80
2019-03-17T19:45:13.172Z,8.80
2019-03-17T19:47:42.392Z,8.70
2019-03-17T19:50:12.839Z,8.70
2019-03-17T19:52:42.093Z,8.70
2019-03-17T19:55:11.452Z,8.70
2019-03-17T19:57:40.641Z,8.50
2019-03-17T20:00:12.139Z,8.50
2019-03-17T20:02:41.433Z,8.70
2019-03-17T20:05:10.677Z,8.70
2019-03-17T20:07:39.932Z,8.70
2019-03-17T20:10:11.509Z,8.60
2019-03-17T20:12:40.784Z,8.70
2019-03-17T20:15:09.977Z,8.70
2019-03-17T20:17:39.254Z,8.50
2019-03-17T20:20:09.423Z,8.50
2019-03-17T20:22:38.805Z,8.50
2019-03-17T20:25:08.188Z,8.40
2019-03-17T20:27:37.593Z,8.50
2019-03-17T20:30:07.448Z,8.60
2019-03-17T20:32:36.714Z,8.50
2019-03-17T20:35:07.061Z,8.30
2019-03-17T20:37:36.361Z,8.50
2019-03-17T20:40:06.257Z,8.50
2019-03-17T20:42:35.442Z,8.50
2019-03-17T20:45:04.951Z,8.50
2019-03-17T20:47:34.171Z,8.40
2019-03-17T20:50:03.439Z,8.50
2019-03-17T20:52:32.612Z,8.40
2019-03-17T20:55:01.794Z,8.30
2019-03-17T20:57:30.948Z,8.30
2019-03-17T21:00:00.464Z,8.20
2019-03-17T21:02:29.700Z,8.10
2019-03-17T21:04:58.952Z,8.00
2019-03-17T21:07:28.166Z,8.10
2019-03-17T21:09:57.396Z,8.20
2019-03-17T21:12:26.696Z,8.30
2019-03-17T21:14:55.859Z,8.10
2019-03-17T21:17:25.015Z,8.20
2019-03-17T21:19:54.899Z,8.30
2019-03-17T21:22:24.048Z,8.30
2019-03-17T21:24:53.212Z,8.20
2019-03-17T21:27:22.685Z,8.20
2019-03-17T21:29:51.882Z,8.00
2019-03-17T21:32:21.187Z,7.90
2019-03-17T21:34:50.355Z,8.10
2019-03-17T21:37:19.496Z,8.20
2019-03-17T21:39:48.660Z,8.20
2019-03-17T21:42:17.854Z,8.20
2019-03-17T21:44:47.045Z,8.20
2019-03-17T21:47:16.240Z,8.20
2019-03-17T21:49:45.424Z,8.20
2019-03-17T21:52:14.591Z,8.20
2019-03-17T21:54:43.723Z,8.20
2019-03-17T21:57:12.903Z,8.10
2019-03-17T21:59:42.022Z,8.10
2019-03-17T22:02:13.234Z,8.20
2019-03-17T22:04:42.548Z,8.00
2019-03-17T22:07:11.818Z,8.10
2019-03-17T22:09:41.049Z,8.00
2019-03-17T22:12:10.213Z,8.00
2019-03-17T22:14:39.472Z,8.00
2019-03-17T22:17:08.644Z,7.90
2019-03-17T22:19:37.770Z,8.00
2019-03-17T22:22:09.012Z,7.90
2019-03-17T22:24:37.797Z,7.90
2019-03-17T22:27:07.048Z,7.80
2019-03-17T22:29:36.202Z,7.80
2019-03-17T22:32:05.373Z,7.80
2019-03-17T22:34:34.584Z,7.70
2019-03-17T22:37:03.745Z,7.70
2019-03-17T22:39:33.013Z,7.60
2019-03-17T22:42:02.194Z,7.60
2019-03-17T22:44:31.406Z,7.60
2019-03-17T22:47:00.833Z,7.60
2019-03-17T22:49:29.989Z,7.70
2019-03-17T22:51:59.339Z,7.70
2019-03-17T22:54:28.657Z,7.80
2019-03-17T22:56:57.975Z,7.90
2019-03-17T22:59:27.145Z,7.80
2019-03-17T23:01:56.360Z,7.80
2019-03-17T23:04:25.546Z,7.70
2019-03-17T23:06:54.729Z,7.70
2019-03-17T23:09:23.912Z,7.80
2019-03-17T23:11:53.332Z,7.70
2019-03-17T23:14:22.586Z,7.60
2019-03-17T23:16:51.843Z,7.60
2019-03-17T23:19:21.052Z,7.70
2019-03-17T23:21:50.180Z,7.60
2019-03-17T23:24:19.448Z,7.50
2019-03-17T23:26:48.581Z,7.60
2019-03-17T23:29:17.747Z,7.70
2019-03-17T23:31:46.885Z,7.50
2019-03-17T23:34:16.033Z,7.60
2019-03-17T23:36:45.175Z,7.50
2019-03-17T23:39:14.332Z,7.50
2019-03-17T23:41:44.171Z,7.40
2019-03-17T23:44:13.583Z,7.40
2019-03-17T23:46:42.848Z,7.20
2019-03-17T23:49:12.091Z,7.30
2019-03-17T23:51:41.216Z,7.40
2019-03-17T23:54:10.361Z,7.50
2019-03-17T23:56:39.593Z,7.40
2019-03-17T23:59:08.803Z,7.30
